sensor_id;sensor_type;location;lat;lon;timestamp;P1;durP1;ratioP1;P2;durP2;ratioP2
462;SDS011;218;51.902;9.542;2023-04-25T00:02:23;10.57;;;7.00;;
462;SDS011;218;51.902;9.542;2023-04-25T00:04:50;12.17;;;7.97;;
462;SDS011;218;51.902;9.542;2023-04-25T00:07:17;13.03;;;6.90;;
462;SDS011;218;51.902;9.542;2023-04-25T00:09:44;7.68;;;6.70;;
462;SDS011;218;51.902;9.542;2023-04-25T00:12:13;8.43;;;6.38;;
462;SDS011;218;51.902;9.542;2023-04-25T00:14:40;10.73;;;6.82;;
462;SDS011;218;51.902;9.542;2023-04-25T00:17:07;7.07;;;6.30;;
462;SDS011;218;51.902;9.542;2023-04-25T00:19:36;8.40;;;6.53;;
462;SDS011;218;51.902;9.542;2023-04-25T00:22:03;10.40;;;6.82;;
462;SDS011;218;51.902;9.542;2023-04-25T00:24:31;8.87;;;6.70;;
462;SDS011;218;51.902;9.542;2023-04-25T00:26:58;10.50;;;6.30;;
462;SDS011;218;51.902;9.542;2023-04-25T00:29:26;10.13;;;6.80;;
462;SDS011;218;51.902;9.542;2023-04-25T00:31:54;9.37;;;6.63;;
462;SDS011;218;51.902;9.542;2023-04-25T00:34:21;7.37;;;6.57;;
462;SDS011;218;51.902;9.542;2023-04-25T00:36:48;11.32;;;7.30;;
462;SDS011;218;51.902;9.542;2023-04-25T00:39:15;7.38;;;6.38;;
462;SDS011;218;51.902;9.542;2023-04-25T00:41:42;7.73;;;6.50;;
462;SDS011;218;51.902;9.542;2023-04-25T00:44:10;11.13;;;8.13;;
462;SDS011;218;51.902;9.542;2023-04-25T00:46:39;11.57;;;7.10;;
462;SDS011;218;51.902;9.542;2023-04-25T00:49:07;11.57;;;7.97;;
462;SDS011;218;51.902;9.542;2023-04-25T00:51:38;9.30;;;7.07;;
462;SDS011;218;51.902;9.542;2023-04-25T00:54:05;12.80;;;6.70;;
462;SDS011;218;51.902;9.542;2023-04-25T00:56:33;13.07;;;7.63;;
462;SDS011;218;51.902;9.542;2023-04-25T00:58:59;9.10;;;6.50;;
462;SDS011;218;51.902;9.542;2023-04-25T01:01:26;10.73;;;7.55;;
462;SDS011;218;51.902;9.542;2023-04-25T01:03:55;10.53;;;7.43;;
462;SDS011;218;51.902;9.542;2023-04-25T01:06:23;8.75;;;6.78;;
462;SDS011;218;51.902;9.542;2023-04-25T01:08:52;11.75;;;7.07;;
462;SDS011;218;51.902;9.542;2023-04-25T01:11:20;12.50;;;7.07;;
462;SDS011;218;51.902;9.542;2023-04-25T01:13:47;11.00;;;6.43;;
462;SDS011;218;51.902;9.542;2023-04-25T01:16:14;9.93;;;7.23;;
462;SDS011;218;51.902;9.542;2023-04-25T01:18:41;13.73;;;5.73;;
462;SDS011;218;51.902;9.542;2023-04-25T01:21:11;8.13;;;6.38;;
462;SDS011;218;51.902;9.542;2023-04-25T01:23:38;9.65;;;6.43;;
462;SDS011;218;51.902;9.542;2023-04-25T01:26:06;10.63;;;6.97;;
462;SDS011;218;51.902;9.542;2023-04-25T01:28:33;8.50;;;6.00;;
462;SDS011;218;51.902;9.542;2023-04-25T01:31:00;9.13;;;7.00;;
462;SDS011;218;51.902;9.542;2023-04-25T01:33:28;11.10;;;7.50;;
462;SDS011;218;51.902;9.542;2023-04-25T01:35:55;8.50;;;7.53;;
462;SDS011;218;51.902;9.542;2023-04-25T01:38:24;9.03;;;7.73;;
462;SDS011;218;51.902;9.542;2023-04-25T01:40:51;10.40;;;7.90;;
462;SDS011;218;51.902;9.542;2023-04-25T01:43:18;12.25;;;7.88;;
462;SDS011;218;51.902;9.542;2023-04-25T01:45:45;11.10;;;7.55;;
462;SDS011;218;51.902;9.542;2023-04-25T01:48:13;10.23;;;7.20;;
462;SDS011;218;51.902;9.542;2023-04-25T01:50:41;10.57;;;7.68;;
462;SDS011;218;51.902;9.542;2023-04-25T01:53:09;12.13;;;7.50;;
462;SDS011;218;51.902;9.542;2023-04-25T01:55:38;10.93;;;7.10;;
462;SDS011;218;51.902;9.542;2023-04-25T01:58:05;12.02;;;7.47;;
462;SDS011;218;51.902;9.542;2023-04-25T02:00:34;9.17;;;7.60;;
462;SDS011;218;51.902;9.542;2023-04-25T02:03:03;11.88;;;8.32;;
462;SDS011;218;51.902;9.542;2023-04-25T02:05:33;11.07;;;9.35;;
462;SDS011;218;51.902;9.542;2023-04-25T02:08:01;9.93;;;8.33;;
462;SDS011;218;51.902;9.542;2023-04-25T02:10:28;19.87;;;9.33;;
462;SDS011;218;51.902;9.542;2023-04-25T02:12:57;15.63;;;8.90;;
462;SDS011;218;51.902;9.542;2023-04-25T02:15:25;13.32;;;8.73;;
462;SDS011;218;51.902;9.542;2023-04-25T02:17:52;8.53;;;7.73;;
462;SDS011;218;51.902;9.542;2023-04-25T02:20:20;11.60;;;9.40;;
462;SDS011;218;51.902;9.542;2023-04-25T02:22:47;9.73;;;8.73;;
462;SDS011;218;51.902;9.542;2023-04-25T02:25:14;12.68;;;8.88;;
462;SDS011;218;51.902;9.542;2023-04-25T02:27:42;9.60;;;8.57;;
462;SDS011;218;51.902;9.542;2023-04-25T02:30:10;12.23;;;9.00;;
462;SDS011;218;51.902;9.542;2023-04-25T02:32:38;11.40;;;9.70;;
462;SDS011;218;51.902;9.542;2023-04-25T02:35:05;10.55;;;9.10;;
462;SDS011;218;51.902;9.542;2023-04-25T02:37:33;9.88;;;8.88;;
462;SDS011;218;51.902;9.542;2023-04-25T02:40:01;9.90;;;8.40;;
462;SDS011;218;51.902;9.542;2023-04-25T02:42:29;11.07;;;9.65;;
462;SDS011;218;51.902;9.542;2023-04-25T02:44:56;10.65;;;9.02;;
462;SDS011;218;51.902;9.542;2023-04-25T02:47:24;10.80;;;9.43;;
462;SDS011;218;51.902;9.542;2023-04-25T02:49:52;11.80;;;10.07;;
462;SDS011;218;51.902;9.542;2023-04-25T02:52:19;10.45;;;9.45;;
462;SDS011;218;51.902;9.542;2023-04-25T02:54:46;11.18;;;9.90;;
462;SDS011;218;51.902;9.542;2023-04-25T02:57:13;11.82;;;9.30;;
462;SDS011;218;51.902;9.542;2023-04-25T02:59:40;10.73;;;9.27;;
462;SDS011;218;51.902;9.542;2023-04-25T03:02:07;10.60;;;9.60;;
462;SDS011;218;51.902;9.542;2023-04-25T03:04:36;11.02;;;9.60;;
462;SDS011;218;51.902;9.542;2023-04-25T03:07:03;9.63;;;8.73;;
462;SDS011;218;51.902;9.542;2023-04-25T03:09:30;10.50;;;9.40;;
462;SDS011;218;51.902;9.542;2023-04-25T03:11:57;10.25;;;9.25;;
462;SDS011;218;51.902;9.542;2023-04-25T03:14:25;10.37;;;9.37;;
462;SDS011;218;51.902;9.542;2023-04-25T03:16:52;11.47;;;9.63;;
462;SDS011;218;51.902;9.542;2023-04-25T03:19:19;10.52;;;9.43;;
462;SDS011;218;51.902;9.542;2023-04-25T03:21:47;10.30;;;9.23;;
462;SDS011;218;51.902;9.542;2023-04-25T03:24:15;11.90;;;10.35;;
462;SDS011;218;51.902;9.542;2023-04-25T03:26:42;10.38;;;9.38;;
462;SDS011;218;51.902;9.542;2023-04-25T03:29:09;11.02;;;9.93;;
462;SDS011;218;51.902;9.542;2023-04-25T03:31:36;10.32;;;9.23;;
462;SDS011;218;51.902;9.542;2023-04-25T03:34:03;15.20;;;11.40;;
462;SDS011;218;51.902;9.542;2023-04-25T03:36:30;11.27;;;10.00;;
462;SDS011;218;51.902;9.542;2023-04-25T03:38:59;10.40;;;9.40;;
462;SDS011;218;51.902;9.542;2023-04-25T03:41:26;10.00;;;8.88;;
462;SDS011;218;51.902;9.542;2023-04-25T03:43:54;9.13;;;7.70;;
462;SDS011;218;51.902;9.542;2023-04-25T03:46:22;12.40;;;7.18;;
462;SDS011;218;51.902;9.542;2023-04-25T03:48:49;9.80;;;5.38;;
462;SDS011;218;51.902;9.542;2023-04-25T03:51:16;8.05;;;5.13;;
462;SDS011;218;51.902;9.542;2023-04-25T03:53:43;11.82;;;5.30;;
462;SDS011;218;51.902;9.542;2023-04-25T03:56:12;11.02;;;4.88;;
462;SDS011;218;51.902;9.542;2023-04-25T03:58:39;7.00;;;5.20;;
462;SDS011;218;51.902;9.542;2023-04-25T04:01:06;8.18;;;4.65;;
462;SDS011;218;51.902;9.542;2023-04-25T04:03:33;9.40;;;4.63;;
462;SDS011;218;51.902;9.542;2023-04-25T04:06:01;5.95;;;4.90;;
462;SDS011;218;51.902;9.542;2023-04-25T04:08:29;7.55;;;5.05;;
462;SDS011;218;51.902;9.542;2023-04-25T04:10:56;9.73;;;4.70;;
462;SDS011;218;51.902;9.542;2023-04-25T04:13:25;8.90;;;4.70;;
462;SDS011;218;51.902;9.542;2023-04-25T04:15:52;12.07;;;5.63;;
462;SDS011;218;51.902;9.542;2023-04-25T04:18:19;9.23;;;4.65;;
462;SDS011;218;51.902;9.542;2023-04-25T04:20:46;12.98;;;5.00;;
462;SDS011;218;51.902;9.542;2023-04-25T04:23:13;9.23;;;3.88;;
462;SDS011;218;51.902;9.542;2023-04-25T04:25:40;7.10;;;4.47;;
462;SDS011;218;51.902;9.542;2023-04-25T04:28:07;7.30;;;4.22;;
462;SDS011;218;51.902;9.542;2023-04-25T04:30:37;10.20;;;4.20;;
462;SDS011;218;51.902;9.542;2023-04-25T04:33:06;6.35;;;4.43;;
462;SDS011;218;51.902;9.542;2023-04-25T04:35:33;10.75;;;5.00;;
462;SDS011;218;51.902;9.542;2023-04-25T04:38:00;8.43;;;5.20;;
462;SDS011;218;51.902;9.542;2023-04-25T04:40:27;10.65;;;4.75;;
462;SDS011;218;51.902;9.542;2023-04-25T04:42:56;10.80;;;5.38;;
462;SDS011;218;51.902;9.542;2023-04-25T04:45:23;8.13;;;6.00;;
462;SDS011;218;51.902;9.542;2023-04-25T04:47:53;12.80;;;9.02;;
462;SDS011;218;51.902;9.542;2023-04-25T04:50:21;19.90;;;12.53;;
462;SDS011;218;51.902;9.542;2023-04-25T04:52:48;17.45;;;12.63;;
462;SDS011;218;51.902;9.542;2023-04-25T04:55:16;13.80;;;10.53;;
462;SDS011;218;51.902;9.542;2023-04-25T04:57:43;13.27;;;9.53;;
462;SDS011;218;51.902;9.542;2023-04-25T05:00:10;15.93;;;10.65;;
462;SDS011;218;51.902;9.542;2023-04-25T05:02:38;13.38;;;9.55;;
462;SDS011;218;51.902;9.542;2023-04-25T05:05:07;14.00;;;9.67;;
462;SDS011;218;51.902;9.542;2023-04-25T05:07:35;12.13;;;8.95;;
462;SDS011;218;51.902;9.542;2023-04-25T05:10:02;12.98;;;7.95;;
462;SDS011;218;51.902;9.542;2023-04-25T05:12:30;10.02;;;7.30;;
462;SDS011;218;51.902;9.542;2023-04-25T05:14:57;12.17;;;8.57;;
462;SDS011;218;51.902;9.542;2023-04-25T05:17:25;14.57;;;9.95;;
462;SDS011;218;51.902;9.542;2023-04-25T05:19:52;13.73;;;8.00;;
462;SDS011;218;51.902;9.542;2023-04-25T05:22:22;15.80;;;8.60;;
462;SDS011;218;51.902;9.542;2023-04-25T05:24:49;7.57;;;6.20;;
462;SDS011;218;51.902;9.542;2023-04-25T05:27:17;9.63;;;5.90;;
462;SDS011;218;51.902;9.542;2023-04-25T05:29:44;11.57;;;5.27;;
462;SDS011;218;51.902;9.542;2023-04-25T05:32:11;15.80;;;6.35;;
462;SDS011;218;51.902;9.542;2023-04-25T05:34:38;9.13;;;6.53;;
462;SDS011;218;51.902;9.542;2023-04-25T05:37:06;8.70;;;4.20;;
462;SDS011;218;51.902;9.542;2023-04-25T05:39:35;10.57;;;4.53;;
462;SDS011;218;51.902;9.542;2023-04-25T05:42:02;9.60;;;4.53;;
462;SDS011;218;51.902;9.542;2023-04-25T05:44:30;12.52;;;6.20;;
462;SDS011;218;51.902;9.542;2023-04-25T05:46:57;10.20;;;4.47;;
462;SDS011;218;51.902;9.542;2023-04-25T05:49:24;13.93;;;4.73;;
462;SDS011;218;51.902;9.542;2023-04-25T05:51:51;9.57;;;5.82;;
462;SDS011;218;51.902;9.542;2023-04-25T05:54:17;10.20;;;5.07;;
462;SDS011;218;51.902;9.542;2023-04-25T05:56:46;11.25;;;6.25;;
462;SDS011;218;51.902;9.542;2023-04-25T05:59:13;15.60;;;7.07;;
462;SDS011;218;51.902;9.542;2023-04-25T06:01:41;13.60;;;7.80;;
462;SDS011;218;51.902;9.542;2023-04-25T06:04:08;12.60;;;5.90;;
462;SDS011;218;51.902;9.542;2023-04-25T06:06:35;11.50;;;6.18;;
462;SDS011;218;51.902;9.542;2023-04-25T06:09:02;10.00;;;5.35;;
462;SDS011;218;51.902;9.542;2023-04-25T06:11:29;12.82;;;7.05;;
462;SDS011;218;51.902;9.542;2023-04-25T06:13:58;13.27;;;6.70;;
462;SDS011;218;51.902;9.542;2023-04-25T06:16:25;13.45;;;7.05;;
462;SDS011;218;51.902;9.542;2023-04-25T06:18:52;13.57;;;7.32;;
462;SDS011;218;51.902;9.542;2023-04-25T06:21:19;10.52;;;6.60;;
462;SDS011;218;51.902;9.542;2023-04-25T06:23:46;13.30;;;6.90;;
462;SDS011;218;51.902;9.542;2023-04-25T06:26:13;12.85;;;8.18;;
462;SDS011;218;51.902;9.542;2023-04-25T06:28:40;11.13;;;8.10;;
462;SDS011;218;51.902;9.542;2023-04-25T06:31:09;12.77;;;9.60;;
462;SDS011;218;51.902;9.542;2023-04-25T06:33:36;14.50;;;10.02;;
462;SDS011;218;51.902;9.542;2023-04-25T06:36:03;18.37;;;9.13;;
462;SDS011;218;51.902;9.542;2023-04-25T06:38:30;9.70;;;6.40;;
462;SDS011;218;51.902;9.542;2023-04-25T06:40:58;7.50;;;5.03;;
462;SDS011;218;51.902;9.542;2023-04-25T06:43:25;11.55;;;5.45;;
462;SDS011;218;51.902;9.542;2023-04-25T06:45:52;10.80;;;5.17;;
462;SDS011;218;51.902;9.542;2023-04-25T06:48:21;12.20;;;5.90;;
462;SDS011;218;51.902;9.542;2023-04-25T06:50:48;9.98;;;5.93;;
462;SDS011;218;51.902;9.542;2023-04-25T06:53:15;12.73;;;4.80;;
462;SDS011;218;51.902;9.542;2023-04-25T06:55:42;8.70;;;4.80;;
462;SDS011;218;51.902;9.542;2023-04-25T06:58:09;9.50;;;4.30;;
462;SDS011;218;51.902;9.542;2023-04-25T07:00:37;10.30;;;4.87;;
462;SDS011;218;51.902;9.542;2023-04-25T07:03:03;12.30;;;5.00;;
462;SDS011;218;51.902;9.542;2023-04-25T07:05:32;15.83;;;5.37;;
462;SDS011;218;51.902;9.542;2023-04-25T07:07:59;9.80;;;4.70;;
462;SDS011;218;51.902;9.542;2023-04-25T07:10:26;11.60;;;4.50;;
462;SDS011;218;51.902;9.542;2023-04-25T07:12:53;9.07;;;4.70;;
462;SDS011;218;51.902;9.542;2023-04-25T07:15:20;10.80;;;5.87;;
462;SDS011;218;51.902;9.542;2023-04-25T07:17:47;8.73;;;6.33;;
462;SDS011;218;51.902;9.542;2023-04-25T07:20:14;10.05;;;7.03;;
462;SDS011;218;51.902;9.542;2023-04-25T07:22:43;10.52;;;5.80;;
462;SDS011;218;51.902;9.542;2023-04-25T07:25:10;10.53;;;6.37;;
462;SDS011;218;51.902;9.542;2023-04-25T07:27:37;10.07;;;5.18;;
462;SDS011;218;51.902;9.542;2023-04-25T07:30:05;6.05;;;5.20;;
462;SDS011;218;51.902;9.542;2023-04-25T07:32:32;6.70;;;4.70;;
462;SDS011;218;51.902;9.542;2023-04-25T07:34:59;9.77;;;4.32;;
462;SDS011;218;51.902;9.542;2023-04-25T07:37:28;11.83;;;6.10;;
462;SDS011;218;51.902;9.542;2023-04-25T07:39:56;9.17;;;4.13;;
462;SDS011;218;51.902;9.542;2023-04-25T07:42:24;9.20;;;4.70;;
462;SDS011;218;51.902;9.542;2023-04-25T07:44:51;9.97;;;4.17;;
462;SDS011;218;51.902;9.542;2023-04-25T07:47:18;7.35;;;4.22;;
462;SDS011;218;51.902;9.542;2023-04-25T07:49:45;8.85;;;4.20;;
462;SDS011;218;51.902;9.542;2023-04-25T07:52:12;10.07;;;4.32;;
462;SDS011;218;51.902;9.542;2023-04-25T07:54:39;7.83;;;4.40;;
462;SDS011;218;51.902;9.542;2023-04-25T07:57:08;8.35;;;4.20;;
462;SDS011;218;51.902;9.542;2023-04-25T07:59:35;4.57;;;3.33;;
462;SDS011;218;51.902;9.542;2023-04-25T08:02:02;8.10;;;4.00;;
462;SDS011;218;51.902;9.542;2023-04-25T08:04:29;12.47;;;4.13;;
462;SDS011;218;51.902;9.542;2023-04-25T08:06:56;11.40;;;4.50;;
462;SDS011;218;51.902;9.542;2023-04-25T08:09:23;8.07;;;4.13;;
462;SDS011;218;51.902;9.542;2023-04-25T08:11:50;9.48;;;4.22;;
462;SDS011;218;51.902;9.542;2023-04-25T08:14:18;11.18;;;4.30;;
462;SDS011;218;51.902;9.542;2023-04-25T08:16:45;8.90;;;4.50;;
462;SDS011;218;51.902;9.542;2023-04-25T08:19:13;6.22;;;3.83;;
462;SDS011;218;51.902;9.542;2023-04-25T08:21:40;11.40;;;4.80;;
462;SDS011;218;51.902;9.542;2023-04-25T08:24:07;9.67;;;4.10;;
462;SDS011;218;51.902;9.542;2023-04-25T08:26:34;7.50;;;4.32;;
462;SDS011;218;51.902;9.542;2023-04-25T08:29:02;11.23;;;4.37;;
462;SDS011;218;51.902;9.542;2023-04-25T08:31:30;12.35;;;4.60;;
462;SDS011;218;51.902;9.542;2023-04-25T08:33:58;7.30;;;4.53;;
462;SDS011;218;51.902;9.542;2023-04-25T08:36:25;9.55;;;4.47;;
462;SDS011;218;51.902;9.542;2023-04-25T08:38:53;7.93;;;3.92;;
462;SDS011;218;51.902;9.542;2023-04-25T08:41:21;9.43;;;3.67;;
462;SDS011;218;51.902;9.542;2023-04-25T08:43:48;6.20;;;3.80;;
462;SDS011;218;51.902;9.542;2023-04-25T08:46:17;8.85;;;4.30;;
462;SDS011;218;51.902;9.542;2023-04-25T08:48:46;8.27;;;4.18;;
462;SDS011;218;51.902;9.542;2023-04-25T08:51:15;6.28;;;3.78;;
462;SDS011;218;51.902;9.542;2023-04-25T08:53:44;7.70;;;3.80;;
462;SDS011;218;51.902;9.542;2023-04-25T08:56:12;8.30;;;4.22;;
462;SDS011;218;51.902;9.542;2023-04-25T08:58:42;5.20;;;3.77;;
462;SDS011;218;51.902;9.542;2023-04-25T09:01:11;7.13;;;3.60;;
462;SDS011;218;51.902;9.542;2023-04-25T09:03:38;6.18;;;3.47;;
462;SDS011;218;51.902;9.542;2023-04-25T09:06:06;6.72;;;3.40;;
462;SDS011;218;51.902;9.542;2023-04-25T09:08:35;8.07;;;3.55;;
462;SDS011;218;51.902;9.542;2023-04-25T09:11:05;7.43;;;3.70;;
462;SDS011;218;51.902;9.542;2023-04-25T09:13:32;6.97;;;3.45;;
462;SDS011;218;51.902;9.542;2023-04-25T09:15:59;6.17;;;3.03;;
462;SDS011;218;51.902;9.542;2023-04-25T09:18:27;8.20;;;3.22;;
462;SDS011;218;51.902;9.542;2023-04-25T09:20:55;6.50;;;3.60;;
462;SDS011;218;51.902;9.542;2023-04-25T09:23:24;5.55;;;3.40;;
462;SDS011;218;51.902;9.542;2023-04-25T09:25:52;7.90;;;3.60;;
462;SDS011;218;51.902;9.542;2023-04-25T09:28:22;5.43;;;3.33;;
462;SDS011;218;51.902;9.542;2023-04-25T09:30:54;6.07;;;3.37;;
462;SDS011;218;51.902;9.542;2023-04-25T09:33:26;5.03;;;3.50;;
462;SDS011;218;51.902;9.542;2023-04-25T09:35:56;4.03;;;3.63;;
462;SDS011;218;51.902;9.542;2023-04-25T09:38:30;7.00;;;3.33;;
462;SDS011;218;51.902;9.542;2023-04-25T09:40:57;6.90;;;3.67;;
462;SDS011;218;51.902;9.542;2023-04-25T09:43:25;3.80;;;2.80;;
462;SDS011;218;51.902;9.542;2023-04-25T09:45:53;2.80;;;2.33;;
462;SDS011;218;51.902;9.542;2023-04-25T09:48:24;4.53;;;2.70;;
462;SDS011;218;51.902;9.542;2023-04-25T09:51:03;3.93;;;3.00;;
462;SDS011;218;51.902;9.542;2023-04-25T09:53:32;4.27;;;3.93;;
462;SDS011;218;51.902;9.542;2023-04-25T09:56:00;6.55;;;3.67;;
462;SDS011;218;51.902;9.542;2023-04-25T09:58:31;6.07;;;3.37;;
462;SDS011;218;51.902;9.542;2023-04-25T10:00:59;4.13;;;3.73;;
462;SDS011;218;51.902;9.542;2023-04-25T10:03:27;6.22;;;2.80;;
462;SDS011;218;51.902;9.542;2023-04-25T10:05:56;6.50;;;3.23;;
462;SDS011;218;51.902;9.542;2023-04-25T10:08:26;7.30;;;3.17;;
462;SDS011;218;51.902;9.542;2023-04-25T10:10:57;3.57;;;3.03;;
462;SDS011;218;51.902;9.542;2023-04-25T10:13:25;5.13;;;3.15;;
462;SDS011;218;51.902;9.542;2023-04-25T10:15:52;6.55;;;3.05;;
462;SDS011;218;51.902;9.542;2023-04-25T10:18:20;5.00;;;3.10;;
462;SDS011;218;51.902;9.542;2023-04-25T10:20:48;4.27;;;3.00;;
462;SDS011;218;51.902;9.542;2023-04-25T10:23:15;5.00;;;2.80;;
462;SDS011;218;51.902;9.542;2023-04-25T10:25:43;4.53;;;3.03;;
462;SDS011;218;51.902;9.542;2023-04-25T10:28:12;7.85;;;3.15;;
462;SDS011;218;51.902;9.542;2023-04-25T10:30:44;6.10;;;3.20;;
462;SDS011;218;51.902;9.542;2023-04-25T10:33:29;3.90;;;3.08;;
462;SDS011;218;51.902;9.542;2023-04-25T10:35:57;5.57;;;3.03;;
462;SDS011;218;51.902;9.542;2023-04-25T10:38:24;6.60;;;3.25;;
462;SDS011;218;51.902;9.542;2023-04-25T10:41:05;3.35;;;2.85;;
462;SDS011;218;51.902;9.542;2023-04-25T10:43:35;8.60;;;3.30;;
462;SDS011;218;51.902;9.542;2023-04-25T10:46:12;3.27;;;2.93;;
462;SDS011;218;51.902;9.542;2023-04-25T10:48:43;4.10;;;2.53;;
462;SDS011;218;51.902;9.542;2023-04-25T10:51:15;7.50;;;3.40;;
462;SDS011;218;51.902;9.542;2023-04-25T10:53:43;5.37;;;3.00;;
462;SDS011;218;51.902;9.542;2023-04-25T10:56:11;3.58;;;2.80;;
462;SDS011;218;51.902;9.542;2023-04-25T10:58:43;5.53;;;2.70;;
462;SDS011;218;51.902;9.542;2023-04-25T11:01:11;4.05;;;2.97;;
462;SDS011;218;51.902;9.542;2023-04-25T11:03:40;5.80;;;3.20;;
462;SDS011;218;51.902;9.542;2023-04-25T11:06:09;3.80;;;2.80;;
462;SDS011;218;51.902;9.542;2023-04-25T11:08:47;7.57;;;3.20;;
462;SDS011;218;51.902;9.542;2023-04-25T11:11:15;5.30;;;3.05;;
462;SDS011;218;51.902;9.542;2023-04-25T11:13:44;4.15;;;2.90;;
462;SDS011;218;51.902;9.542;2023-04-25T11:16:11;5.60;;;3.77;;
462;SDS011;218;51.902;9.542;2023-04-25T11:18:40;7.28;;;3.30;;
462;SDS011;218;51.902;9.542;2023-04-25T11:21:07;3.93;;;3.40;;
462;SDS011;218;51.902;9.542;2023-04-25T11:23:34;3.73;;;2.97;;
462;SDS011;218;51.902;9.542;2023-04-25T11:26:01;6.57;;;3.00;;
462;SDS011;218;51.902;9.542;2023-04-25T11:28:29;4.68;;;2.70;;
462;SDS011;218;51.902;9.542;2023-04-25T11:30:57;5.20;;;3.10;;
462;SDS011;218;51.902;9.542;2023-04-25T11:33:25;6.05;;;3.40;;
462;SDS011;218;51.902;9.542;2023-04-25T11:35:53;6.60;;;3.83;;
462;SDS011;218;51.902;9.542;2023-04-25T11:38:21;5.45;;;3.75;;
462;SDS011;218;51.902;9.542;2023-04-25T11:40:51;8.17;;;3.90;;
462;SDS011;218;51.902;9.542;2023-04-25T11:43:19;4.47;;;3.20;;
462;SDS011;218;51.902;9.542;2023-04-25T11:45:47;4.73;;;3.50;;
462;SDS011;218;51.902;9.542;2023-04-25T11:48:17;3.30;;;3.00;;
462;SDS011;218;51.902;9.542;2023-04-25T11:50:44;4.83;;;3.37;;
462;SDS011;218;51.902;9.542;2023-04-25T11:53:12;6.67;;;4.07;;
462;SDS011;218;51.902;9.542;2023-04-25T11:55:38;3.25;;;2.90;;
462;SDS011;218;51.902;9.542;2023-04-25T11:58:06;4.57;;;3.67;;
462;SDS011;218;51.902;9.542;2023-04-25T12:00:33;5.17;;;3.70;;
462;SDS011;218;51.902;9.542;2023-04-25T12:03:00;3.80;;;2.63;;
462;SDS011;218;51.902;9.542;2023-04-25T12:05:30;5.47;;;2.95;;
462;SDS011;218;51.902;9.542;2023-04-25T12:07:58;4.17;;;2.97;;
462;SDS011;218;51.902;9.542;2023-04-25T12:10:37;6.47;;;3.17;;
462;SDS011;218;51.902;9.542;2023-04-25T12:13:17;4.73;;;3.33;;
462;SDS011;218;51.902;9.542;2023-04-25T12:15:45;4.72;;;2.33;;
462;SDS011;218;51.902;9.542;2023-04-25T12:18:12;4.23;;;2.60;;
462;SDS011;218;51.902;9.542;2023-04-25T12:20:41;4.40;;;2.70;;
462;SDS011;218;51.902;9.542;2023-04-25T12:23:08;3.50;;;2.20;;
462;SDS011;218;51.902;9.542;2023-04-25T12:25:37;4.07;;;2.53;;
462;SDS011;218;51.902;9.542;2023-04-25T12:28:11;4.07;;;3.00;;
462;SDS011;218;51.902;9.542;2023-04-25T12:33:24;3.75;;;2.50;;
462;SDS011;218;51.902;9.542;2023-04-25T12:35:53;3.58;;;2.33;;
462;SDS011;218;51.902;9.542;2023-04-25T12:38:21;4.13;;;3.10;;
462;SDS011;218;51.902;9.542;2023-04-25T12:40:49;4.53;;;2.45;;
462;SDS011;218;51.902;9.542;2023-04-25T12:43:17;3.83;;;2.35;;
462;SDS011;218;51.902;9.542;2023-04-25T12:45:44;6.18;;;2.67;;
462;SDS011;218;51.902;9.542;2023-04-25T12:48:11;5.63;;;2.70;;
462;SDS011;218;51.902;9.542;2023-04-25T12:50:39;2.60;;;2.20;;
462;SDS011;218;51.902;9.542;2023-04-25T12:53:07;6.30;;;2.70;;
462;SDS011;218;51.902;9.542;2023-04-25T12:55:34;4.23;;;2.90;;
462;SDS011;218;51.902;9.542;2023-04-25T12:58:01;5.37;;;2.23;;
462;SDS011;218;51.902;9.542;2023-04-25T13:00:29;4.57;;;2.65;;
462;SDS011;218;51.902;9.542;2023-04-25T13:02:56;3.20;;;2.50;;
462;SDS011;218;51.902;9.542;2023-04-25T13:05:24;4.95;;;3.30;;
462;SDS011;218;51.902;9.542;2023-04-25T13:07:51;7.33;;;2.73;;
462;SDS011;218;51.902;9.542;2023-04-25T13:10:20;4.13;;;2.50;;
462;SDS011;218;51.902;9.542;2023-04-25T13:12:47;6.03;;;2.77;;
462;SDS011;218;51.902;9.542;2023-04-25T13:15:14;4.23;;;2.80;;
462;SDS011;218;51.902;9.542;2023-04-25T13:17:41;2.50;;;1.77;;
462;SDS011;218;51.902;9.542;2023-04-25T13:20:09;3.27;;;2.67;;
462;SDS011;218;51.902;9.542;2023-04-25T13:22:37;2.43;;;2.03;;
462;SDS011;218;51.902;9.542;2023-04-25T13:25:04;3.37;;;2.60;;
462;SDS011;218;51.902;9.542;2023-04-25T13:27:34;3.43;;;2.37;;
462;SDS011;218;51.902;9.542;2023-04-25T13:30:02;2.47;;;2.37;;
462;SDS011;218;51.902;9.542;2023-04-25T13:32:32;5.23;;;2.63;;
462;SDS011;218;51.902;9.542;2023-04-25T13:35:01;3.27;;;2.97;;
462;SDS011;218;51.902;9.542;2023-04-25T13:37:28;3.67;;;2.57;;
462;SDS011;218;51.902;9.542;2023-04-25T13:39:57;5.20;;;3.00;;
462;SDS011;218;51.902;9.542;2023-04-25T13:42:24;3.40;;;3.10;;
462;SDS011;218;51.902;9.542;2023-04-25T13:44:52;3.07;;;2.77;;
462;SDS011;218;51.902;9.542;2023-04-25T13:47:20;5.17;;;2.50;;
462;SDS011;218;51.902;9.542;2023-04-25T13:49:47;5.10;;;2.47;;
462;SDS011;218;51.902;9.542;2023-04-25T13:52:14;3.43;;;2.80;;
462;SDS011;218;51.902;9.542;2023-04-25T13:54:41;2.50;;;2.30;;
462;SDS011;218;51.902;9.542;2023-04-25T13:57:08;2.63;;;2.00;;
462;SDS011;218;51.902;9.542;2023-04-25T13:59:36;3.73;;;2.20;;
462;SDS011;218;51.902;9.542;2023-04-25T14:02:04;5.07;;;2.00;;
462;SDS011;218;51.902;9.542;2023-04-25T14:04:31;2.87;;;2.53;;
462;SDS011;218;51.902;9.542;2023-04-25T14:06:58;3.10;;;2.50;;
462;SDS011;218;51.902;9.542;2023-04-25T14:09:25;2.20;;;2.10;;
462;SDS011;218;51.902;9.542;2023-04-25T14:11:52;2.37;;;2.00;;
462;SDS011;218;51.902;9.542;2023-04-25T14:14:20;3.93;;;2.20;;
462;SDS011;218;51.902;9.542;2023-04-25T14:16:47;2.30;;;2.10;;
462;SDS011;218;51.902;9.542;2023-04-25T14:19:16;3.50;;;2.77;;
462;SDS011;218;51.902;9.542;2023-04-25T14:21:43;2.70;;;2.10;;
462;SDS011;218;51.902;9.542;2023-04-25T14:24:11;3.10;;;2.07;;
462;SDS011;218;51.902;9.542;2023-04-25T14:26:39;5.70;;;2.67;;
462;SDS011;218;51.902;9.542;2023-04-25T14:29:07;3.13;;;2.83;;
462;SDS011;218;51.902;9.542;2023-04-25T14:31:36;4.27;;;2.57;;
462;SDS011;218;51.902;9.542;2023-04-25T14:34:04;4.70;;;2.83;;
462;SDS011;218;51.902;9.542;2023-04-25T14:36:33;2.53;;;2.33;;
462;SDS011;218;51.902;9.542;2023-04-25T14:39:01;5.40;;;2.63;;
462;SDS011;218;51.902;9.542;2023-04-25T14:41:29;3.77;;;2.70;;
462;SDS011;218;51.902;9.542;2023-04-25T14:43:57;3.00;;;2.20;;
462;SDS011;218;51.902;9.542;2023-04-25T14:46:24;3.37;;;2.60;;
462;SDS011;218;51.902;9.542;2023-04-25T14:48:51;2.53;;;2.17;;
462;SDS011;218;51.902;9.542;2023-04-25T14:51:20;3.27;;;2.30;;
462;SDS011;218;51.902;9.542;2023-04-25T14:53:49;3.60;;;3.20;;
462;SDS011;218;51.902;9.542;2023-04-25T14:56:16;4.67;;;2.67;;
462;SDS011;218;51.902;9.542;2023-04-25T14:58:43;6.60;;;3.93;;
462;SDS011;218;51.902;9.542;2023-04-25T15:01:10;4.10;;;2.90;;
462;SDS011;218;51.902;9.542;2023-04-25T15:03:38;4.93;;;2.90;;
462;SDS011;218;51.902;9.542;2023-04-25T15:06:05;5.50;;;3.13;;
462;SDS011;218;51.902;9.542;2023-04-25T15:08:32;3.70;;;3.40;;
462;SDS011;218;51.902;9.542;2023-04-25T15:11:01;4.50;;;3.13;;
462;SDS011;218;51.902;9.542;2023-04-25T15:13:28;4.25;;;2.38;;
462;SDS011;218;51.902;9.542;2023-04-25T15:15:55;2.50;;;2.30;;
462;SDS011;218;51.902;9.542;2023-04-25T15:18:22;2.50;;;2.30;;
462;SDS011;218;51.902;9.542;2023-04-25T15:20:50;5.83;;;2.80;;
462;SDS011;218;51.902;9.542;2023-04-25T15:23:17;2.33;;;2.13;;
462;SDS011;218;51.902;9.542;2023-04-25T15:25:45;2.40;;;2.20;;
462;SDS011;218;51.902;9.542;2023-04-25T15:28:13;3.73;;;2.33;;
462;SDS011;218;51.902;9.542;2023-04-25T15:30:41;3.22;;;1.83;;
462;SDS011;218;51.902;9.542;2023-04-25T15:33:08;2.53;;;2.33;;
462;SDS011;218;51.902;9.542;2023-04-25T15:35:35;2.70;;;2.50;;
462;SDS011;218;51.902;9.542;2023-04-25T15:38:02;2.63;;;2.03;;
462;SDS011;218;51.902;9.542;2023-04-25T15:40:29;1.87;;;1.77;;
462;SDS011;218;51.902;9.542;2023-04-25T15:42:56;2.40;;;2.30;;
462;SDS011;218;51.902;9.542;2023-04-25T15:45:25;4.60;;;2.30;;
462;SDS011;218;51.902;9.542;2023-04-25T15:47:52;1.83;;;1.70;;